createdAt,value
2022-11-29T00:04:27.936Z,64.83
2022-11-29T00:09:32.668Z,64.58
2022-11-29T00:14:35.720Z,66.03
2022-11-29T00:19:39.151Z,65.48
2022-11-29T00:24:44.112Z,65.88
2022-11-29T00:29:47.858Z,65.59
2022-11-29T00:34:51.193Z,65.63
2022-11-29T00:39:55.862Z,66.63
2022-11-29T00:44:58.808Z,65.88
2022-11-29T00:50:02.218Z,65.57
2022-11-29T00:55:08.873Z,65.17
2022-11-29T01:00:13.312Z,65.49
2022-11-29T01:05:16.655Z,65.94
2022-11-29T01:10:21.409Z,64.73
2022-11-29T01:15:24.443Z,64.66
2022-11-29T01:20:27.752Z,65.61
2022-11-29T01:25:33.024Z,65.28
2022-11-29T01:30:36.346Z,64.65
2022-11-29T01:35:39.655Z,65.05
2022-11-29T01:40:44.698Z,64.52
2022-11-29T01:45:47.955Z,64.44
2022-11-29T01:50:51.998Z,65.22
2022-11-29T01:56:02.803Z,64.66
2022-11-29T02:01:06.380Z,65.29
2022-11-29T02:06:09.842Z,64.34
2022-11-29T02:11:42.692Z,65.03
2022-11-29T02:16:56.682Z,65.59
2022-11-29T02:22:06.903Z,65.60
2022-11-29T02:28:03.870Z,65.53
2022-11-29T02:33:38.335Z,65.52
2022-11-29T02:39:26.986Z,64.87
2022-11-29T02:44:49.662Z,64.89
2022-11-29T02:50:13.220Z,64.84
2022-11-29T02:55:23.113Z,64.72
2022-11-29T03:00:26.927Z,64.25
2022-11-29T03:05:42.187Z,64.83
2022-11-29T03:10:57.949Z,64.47
2022-11-29T03:16:09.638Z,64.36
2022-11-29T03:21:25.912Z,65.56
2022-11-29T03:26:39.733Z,65.49
2022-11-29T03:31:49.060Z,65.98
2022-11-29T03:36:59.302Z,65.34
2022-11-29T03:42:07.569Z,65.99
2022-11-29T03:47:15.129Z,65.70
2022-11-29T03:52:24.150Z,65.81
2022-11-29T03:57:33.041Z,65.61
2022-11-29T04:03:11.068Z,66.02
2022-11-29T04:08:53.039Z,66.21
2022-11-29T04:14:16.496Z,65.67
2022-11-29T04:20:01.424Z,65.74
2022-11-29T04:25:35.867Z,65.72
2022-11-29T04:30:53.983Z,65.69
2022-11-29T04:36:38.424Z,65.21
2022-11-29T04:42:02.100Z,64.90
2022-11-29T04:47:17.207Z,64.43
2022-11-29T04:52:32.642Z,65.29
2022-11-29T04:57:44.437Z,64.97
2022-11-29T05:02:56.989Z,65.03
2022-11-29T05:08:17.699Z,64.71
2022-11-29T05:13:30.612Z,65.30
2022-11-29T05:18:55.578Z,64.62
2022-11-29T05:24:12.220Z,64.16
2022-11-29T05:29:26.756Z,64.49
2022-11-29T05:34:41.929Z,64.58
2022-11-29T05:39:59.020Z,64.17
2022-11-29T05:45:10.810Z,64.72
2022-11-29T05:50:22.976Z,64.00
2022-11-29T05:55:42.265Z,64.71
2022-11-29T06:00:52.003Z,64.24
2022-11-29T06:06:00.937Z,64.11
2022-11-29T06:11:07.545Z,63.99
2022-11-29T06:16:42.414Z,63.27
2022-11-29T06:21:55.503Z,62.81
2022-11-29T06:27:19.160Z,62.23
2022-11-29T06:32:33.066Z,60.93
2022-11-29T06:37:41.433Z,61.02
2022-11-29T06:42:44.881Z,61.35
2022-11-29T06:47:54.820Z,61.42
2022-11-29T06:53:08.667Z,61.06
2022-11-29T06:58:24.014Z,61.18
2022-11-29T07:03:41.036Z,61.08
2022-11-29T07:08:45.213Z,61.23
2022-11-29T07:13:48.975Z,61.19
2022-11-29T07:19:04.481Z,61.35
2022-11-29T07:24:17.300Z,61.56
2022-11-29T07:29:28.427Z,61.07
2022-11-29T07:34:41.609Z,60.39
2022-11-29T07:39:53.333Z,60.86
2022-11-29T07:45:06.433Z,60.66
2022-11-29T07:50:14.999Z,60.65
2022-11-29T07:55:21.216Z,60.95
2022-11-29T08:00:24.692Z,60.20
2022-11-29T08:05:29.293Z,60.16
2022-11-29T08:10:32.359Z,59.12
2022-11-29T08:15:35.704Z,59.83
2022-11-29T08:20:41.802Z,60.04
2022-11-29T08:25:45.937Z,59.56
2022-11-29T08:30:49.229Z,59.29
2022-11-29T08:35:53.889Z,59.52
2022-11-29T08:41:01.337Z,57.94
2022-11-29T08:46:04.930Z,58.29
2022-11-29T08:51:09.625Z,57.96
2022-11-29T08:57:04.361Z,59.07
2022-11-29T09:01:38.291Z,58.57
2022-11-29T09:06:44.485Z,58.47
2022-11-29T09:11:49.583Z,58.13
2022-11-29T09:16:53.082Z,58.06
2022-11-29T09:21:57.831Z,57.56
2022-11-29T09:27:01.443Z,57.42
2022-11-29T09:32:05.212Z,57.29
2022-11-29T09:37:09.831Z,57.41
2022-11-29T09:42:43.407Z,56.27
2022-11-29T09:48:05.791Z,55.24
2022-11-29T09:53:31.235Z,55.20
2022-11-29T09:58:43.857Z,56.11
2022-11-29T10:03:53.020Z,55.83
2022-11-29T10:09:03.487Z,55.21
2022-11-29T10:14:22.663Z,56.15
2022-11-29T10:19:33.638Z,56.15
2022-11-29T10:24:39.419Z,56.33
2022-11-29T10:29:42.651Z,56.69
2022-11-29T10:34:46.998Z,56.32
2022-11-29T10:39:57.367Z,55.99
2022-11-29T10:45:01.426Z,55.97
2022-11-29T10:50:04.900Z,56.09
2022-11-29T10:55:14.844Z,56.47
2022-11-29T11:00:18.852Z,56.98
2022-11-29T11:05:27.798Z,56.16
2022-11-29T11:10:32.731Z,55.84
2022-11-29T11:15:36.074Z,56.09
2022-11-29T11:20:42.364Z,55.95
2022-11-29T11:25:50.183Z,55.84
2022-11-29T11:30:56.702Z,56.33
2022-11-29T11:36:06.540Z,56.29
2022-11-29T11:41:44.681Z,56.05
2022-11-29T11:46:50.511Z,56.47
2022-11-29T11:51:53.752Z,57.61
2022-11-29T11:56:58.949Z,56.89
2022-11-29T12:02:02.305Z,57.04
2022-11-29T12:07:16.670Z,57.61
2022-11-29T12:12:25.519Z,56.93
2022-11-29T12:17:35.758Z,57.03
2022-11-29T12:22:48.297Z,57.45
2022-11-29T12:27:53.960Z,57.14
2022-11-29T12:33:17.865Z,57.46
2022-11-29T12:38:45.501Z,57.50
2022-11-29T12:44:04.068Z,57.41
2022-11-29T12:49:17.448Z,58.40
2022-11-29T12:54:42.392Z,57.96
2022-11-29T13:00:00.936Z,58.17
2022-11-29T13:05:13.878Z,59.03
2022-11-29T13:10:34.144Z,58.86
2022-11-29T13:15:43.129Z,59.47
2022-11-29T13:20:52.370Z,59.66
2022-11-29T13:25:58.609Z,59.72
2022-11-29T13:31:08.392Z,60.35
2022-11-29T13:36:17.334Z,60.54
2022-11-29T13:41:29.652Z,60.66
2022-11-29T13:46:42.806Z,61.15
2022-11-29T13:51:47.304Z,62.08
2022-11-29T13:56:50.785Z,61.28
2022-11-29T14:01:57.162Z,61.86
2022-11-29T14:07:07.441Z,61.44
2022-11-29T14:12:31.282Z,62.73
2022-11-29T14:17:50.165Z,62.25
2022-11-29T14:23:18.222Z,63.06
2022-11-29T14:28:32.405Z,62.25
2022-11-29T14:34:01.810Z,62.10
2022-11-29T14:39:20.271Z,62.70
2022-11-29T14:44:28.374Z,63.48
2022-11-29T14:49:41.371Z,62.69
2022-11-29T14:54:56.639Z,63.22
2022-11-29T15:00:00.448Z,62.43
2022-11-29T15:05:15.623Z,63.19
2022-11-29T15:10:23.767Z,62.64
2022-11-29T15:15:54.011Z,63.43
2022-11-29T15:21:23.257Z,62.71
2022-11-29T15:26:28.231Z,62.84
2022-11-29T15:31:32.425Z,62.97
2022-11-29T15:36:44.614Z,63.17
2022-11-29T15:41:47.942Z,62.44
2022-11-29T15:46:51.465Z,63.14
2022-11-29T15:51:59.828Z,63.17
2022-11-29T15:57:10.302Z,63.73
2022-11-29T16:02:19.595Z,63.87
2022-11-29T16:07:27.300Z,62.98
2022-11-29T16:12:31.099Z,62.92
2022-11-29T16:17:36.329Z,62.83
2022-11-29T16:22:41.678Z,63.38
2022-11-29T16:27:45.297Z,62.50
2022-11-29T16:32:54.215Z,63.17
2022-11-29T16:38:00.398Z,62.64
2022-11-29T16:43:23.692Z,63.05
2022-11-29T16:48:32.277Z,63.75
2022-11-29T16:53:38.594Z,63.51
2022-11-29T16:59:20.956Z,62.64
2022-11-29T17:04:07.200Z,63.48
2022-11-29T17:09:21.209Z,63.17
2022-11-29T17:14:24.850Z,63.11
2022-11-29T17:19:31.110Z,63.13
2022-11-29T17:24:36.193Z,63.53
2022-11-29T17:29:39.976Z,63.59
2022-11-29T17:34:43.809Z,63.61
2022-11-29T17:39:49.260Z,64.32
2022-11-29T17:44:52.978Z,63.90
2022-11-29T17:49:58.153Z,63.34
2022-11-29T17:55:03.009Z,64.09
2022-11-29T18:00:08.994Z,63.61
2022-11-29T18:05:12.967Z,63.76
2022-11-29T18:10:18.136Z,63.11
2022-11-29T18:15:22.553Z,63.63
2022-11-29T18:20:25.930Z,64.36
2022-11-29T18:25:38.816Z,63.85
2022-11-29T18:30:43.519Z,63.43
2022-11-29T18:35:46.981Z,63.10
2022-11-29T18:40:54.642Z,63.24
2022-11-29T18:45:58.228Z,63.35
2022-11-29T18:51:03.593Z,63.07
2022-11-29T18:56:10.962Z,63.56
2022-11-29T19:01:16.479Z,63.26
2022-11-29T19:06:23.974Z,63.37
2022-11-29T19:11:30.928Z,63.36
2022-11-29T19:16:35.933Z,63.22
2022-11-29T19:21:41.162Z,64.04
2022-11-29T19:26:47.949Z,63.97
2022-11-29T19:31:52.196Z,63.60
2022-11-29T19:36:55.498Z,63.81
2022-11-29T19:42:00.194Z,64.49
2022-11-29T19:47:03.689Z,64.47
2022-11-29T19:52:07.006Z,63.96
2022-11-29T19:57:11.950Z,63.22
2022-11-29T20:02:15.872Z,63.67
2022-11-29T20:07:19.333Z,63.77
2022-11-29T20:12:24.055Z,63.14
2022-11-29T20:17:27.432Z,63.16
2022-11-29T20:22:30.956Z,63.65
2022-11-29T20:27:35.877Z,62.96
2022-11-29T20:32:39.345Z,62.97
2022-11-29T20:38:03.018Z,63.35
2022-11-29T20:43:14.849Z,63.10
2022-11-29T20:48:21.384Z,63.13
2022-11-29T20:53:37.567Z,63.10
2022-11-29T20:58:42.299Z,63.01
2022-11-29T21:03:45.589Z,63.19
2022-11-29T21:08:49.922Z,62.90
2022-11-29T21:13:55.161Z,62.53
2022-11-29T21:19:01.401Z,63.21
2022-11-29T21:24:15.165Z,62.83
2022-11-29T21:29:21.705Z,62.52
2022-11-29T21:34:25.016Z,62.81
2022-11-29T21:39:33.371Z,62.34
2022-11-29T21:44:38.077Z,62.73
2022-11-29T21:49:42.000Z,62.61
2022-11-29T21:54:45.455Z,62.77
2022-11-29T21:59:50.172Z,63.06
2022-11-29T22:04:53.529Z,62.66
2022-11-29T22:09:56.921Z,61.95
2022-11-29T22:15:01.681Z,62.25
2022-11-29T22:20:07.886Z,61.75
2022-11-29T22:25:11.032Z,62.37
2022-11-29T22:30:16.302Z,62.08
2022-11-29T22:35:19.670Z,62.32
2022-11-29T22:40:22.851Z,63.02
2022-11-29T22:45:27.577Z,62.46
2022-11-29T22:50:30.857Z,62.73
2022-11-29T22:55:34.016Z,62.76
2022-11-29T23:00:44.225Z,62.71
2022-11-29T23:05:47.403Z,62.51
2022-11-29T23:10:57.121Z,62.74
2022-11-29T23:16:02.408Z,62.70
2022-11-29T23:21:08.109Z,62.06
2022-11-29T23:26:18.937Z,62.57
2022-11-29T23:31:24.840Z,61.82
2022-11-29T23:36:28.288Z,62.70
2022-11-29T23:41:31.583Z,62.87
2022-11-29T23:46:37.224Z,62.21
2022-11-29T23:51:40.523Z,62.16
2022-11-29T23:56:43.842Z,62.85
